sensor_id;sensor_type;location;lat;lon;timestamp;pressure;altitude;pressure_sealevel;temperature;humidity
68859;BME280;55864;49.238;8.092;2022-10-22T00:00:18;99101.75;;;15.05;84.26
68859;BME280;55864;49.238;8.092;2022-10-22T00:02:18;99099.81;;;14.99;85.14
68859;BME280;55864;49.238;8.092;2022-10-22T00:04:19;99089.34;;;15.06;84.51
68859;BME280;55864;49.238;8.092;2022-10-22T00:06:21;99094.19;;;15.02;85.12
68859;BME280;55864;49.238;8.092;2022-10-22T00:08:21;99087.22;;;15.01;84.79
68859;BME280;55864;49.238;8.092;2022-10-22T00:10:22;99090.31;;;14.90;85.04
68859;BME280;55864;49.238;8.092;2022-10-22T00:12:23;99091.94;;;14.91;86.11
68859;BME280;55864;49.238;8.092;2022-10-22T00:14:23;99093.22;;;14.95;85.78
68859;BME280;55864;49.238;8.092;2022-10-22T00:16:24;99091.78;;;14.93;85.24
68859;BME280;55864;49.238;8.092;2022-10-22T00:18:25;99096.34;;;14.99;85.84
68859;BME280;55864;49.238;8.092;2022-10-22T00:20:25;99115.63;;;15.07;84.52
68859;BME280;55864;49.238;8.092;2022-10-22T00:22:27;99115.88;;;14.98;85.32
68859;BME280;55864;49.238;8.092;2022-10-22T00:24:27;99118.00;;;14.80;86.19
68859;BME280;55864;49.238;8.092;2022-10-22T00:26:28;99115.00;;;14.83;86.44
68859;BME280;55864;49.238;8.092;2022-10-22T00:28:28;99115.00;;;14.83;86.36
68859;BME280;55864;49.238;8.092;2022-10-22T00:30:29;99128.56;;;14.57;87.44
68859;BME280;55864;49.238;8.092;2022-10-22T00:32:30;99122.81;;;14.54;87.91
68859;BME280;55864;49.238;8.092;2022-10-22T00:34:35;99127.59;;;14.58;87.04
68859;BME280;55864;49.238;8.092;2022-10-22T00:36:35;99123.00;;;14.75;86.78
68859;BME280;55864;49.238;8.092;2022-10-22T00:38:37;99118.88;;;14.72;86.58
68859;BME280;55864;49.238;8.092;2022-10-22T00:40:38;99125.31;;;14.78;86.23
68859;BME280;55864;49.238;8.092;2022-10-22T00:42:38;99119.88;;;14.71;86.95
68859;BME280;55864;49.238;8.092;2022-10-22T00:45:02;99122.28;;;14.58;87.80
68859;BME280;55864;49.238;8.092;2022-10-22T00:47:02;99113.25;;;14.75;86.80
68859;BME280;55864;49.238;8.092;2022-10-22T00:49:03;99113.34;;;14.82;86.65
68859;BME280;55864;49.238;8.092;2022-10-22T00:51:05;99120.41;;;14.67;87.91
68859;BME280;55864;49.238;8.092;2022-10-22T00:53:12;99120.06;;;14.70;87.83
68859;BME280;55864;49.238;8.092;2022-10-22T00:55:14;99125.34;;;14.70;88.27
68859;BME280;55864;49.238;8.092;2022-10-22T00:57:16;99123.78;;;14.61;88.96
68859;BME280;55864;49.238;8.092;2022-10-22T00:59:17;99126.19;;;14.48;89.81
68859;BME280;55864;49.238;8.092;2022-10-22T01:01:21;99113.34;;;14.37;90.54
68859;BME280;55864;49.238;8.092;2022-10-22T01:03:23;99111.69;;;14.36;91.05
68859;BME280;55864;49.238;8.092;2022-10-22T01:05:25;99119.69;;;14.19;93.00
68859;BME280;55864;49.238;8.092;2022-10-22T01:07:27;99115.94;;;14.45;91.14
68859;BME280;55864;49.238;8.092;2022-10-22T01:11:53;99115.03;;;14.22;91.86
68859;BME280;55864;49.238;8.092;2022-10-22T01:14:02;99121.97;;;14.31;91.75
68859;BME280;55864;49.238;8.092;2022-10-22T01:16:08;99118.34;;;14.24;91.83
68859;BME280;55864;49.238;8.092;2022-10-22T01:18:14;99121.25;;;14.06;92.78
68859;BME280;55864;49.238;8.092;2022-10-22T01:20:34;99129.19;;;14.06;93.30
68859;BME280;55864;49.238;8.092;2022-10-22T01:22:39;99140.25;;;14.01;93.48
68859;BME280;55864;49.238;8.092;2022-10-22T01:24:52;99152.56;;;14.17;92.62
68859;BME280;55864;49.238;8.092;2022-10-22T01:27:02;99147.94;;;14.19;92.16
68859;BME280;55864;49.238;8.092;2022-10-22T01:29:08;99173.50;;;14.27;91.76
68859;BME280;55864;49.238;8.092;2022-10-22T01:31:12;99171.78;;;14.42;91.22
68859;BME280;55864;49.238;8.092;2022-10-22T01:33:18;99161.44;;;14.24;92.12
68859;BME280;55864;49.238;8.092;2022-10-22T01:35:23;99160.88;;;14.45;90.57
68859;BME280;55864;49.238;8.092;2022-10-22T01:37:29;99144.31;;;14.51;89.52
68859;BME280;55864;49.238;8.092;2022-10-22T01:39:30;99138.84;;;14.52;89.26
68859;BME280;55864;49.238;8.092;2022-10-22T01:41:33;99134.22;;;14.54;89.32
68859;BME280;55864;49.238;8.092;2022-10-22T01:43:33;99126.75;;;14.58;89.74
68859;BME280;55864;49.238;8.092;2022-10-22T01:45:37;99134.22;;;14.54;90.11
68859;BME280;55864;49.238;8.092;2022-10-22T01:47:46;99131.75;;;14.53;90.64
68859;BME280;55864;49.238;8.092;2022-10-22T01:50:03;99121.00;;;14.54;90.88
68859;BME280;55864;49.238;8.092;2022-10-22T01:52:14;99139.31;;;14.56;90.93
68859;BME280;55864;49.238;8.092;2022-10-22T01:54:25;99149.25;;;14.54;91.52
68859;BME280;55864;49.238;8.092;2022-10-22T01:56:37;99150.25;;;14.53;92.42
68859;BME280;55864;49.238;8.092;2022-10-22T01:58:52;99156.88;;;14.49;92.87
68859;BME280;55864;49.238;8.092;2022-10-22T02:01:02;99159.88;;;14.46;93.47
68859;BME280;55864;49.238;8.092;2022-10-22T02:03:09;99159.88;;;14.46;93.38
68859;BME280;55864;49.238;8.092;2022-10-22T02:05:17;99148.13;;;14.48;92.96
68859;BME280;55864;49.238;8.092;2022-10-22T02:07:22;99140.38;;;14.47;92.91
68859;BME280;55864;49.238;8.092;2022-10-22T02:09:26;99130.28;;;14.50;91.58
68859;BME280;55864;49.238;8.092;2022-10-22T02:11:28;99109.59;;;14.54;90.17
68859;BME280;55864;49.238;8.092;2022-10-22T02:13:33;99116.34;;;14.34;91.39
68859;BME280;55864;49.238;8.092;2022-10-22T02:15:36;99107.41;;;14.35;91.00
68859;BME280;55864;49.238;8.092;2022-10-22T02:17:41;99095.66;;;14.37;90.79
68859;BME280;55864;49.238;8.092;2022-10-22T02:19:49;99103.59;;;14.37;90.86
68859;BME280;55864;49.238;8.092;2022-10-22T02:21:52;99099.66;;;14.33;90.58
68859;BME280;55864;49.238;8.092;2022-10-22T02:23:53;99100.97;;;14.37;91.34
68859;BME280;55864;49.238;8.092;2022-10-22T02:25:59;99107.97;;;14.53;90.25
68859;BME280;55864;49.238;8.092;2022-10-22T02:28:09;99106.47;;;14.50;89.89
68859;BME280;55864;49.238;8.092;2022-10-22T02:30:14;99103.97;;;14.57;90.11
68859;BME280;55864;49.238;8.092;2022-10-22T02:32:19;99094.56;;;14.54;89.73
68859;BME280;55864;49.238;8.092;2022-10-22T02:34:25;99082.81;;;14.57;89.55
68859;BME280;55864;49.238;8.092;2022-10-22T02:36:28;99084.88;;;14.47;87.76
68859;BME280;55864;49.238;8.092;2022-10-22T02:38:29;99075.00;;;14.63;85.89
68859;BME280;55864;49.238;8.092;2022-10-22T02:40:31;99082.13;;;14.63;85.86
68859;BME280;55864;49.238;8.092;2022-10-22T02:42:33;99093.41;;;14.57;86.08
68859;BME280;55864;49.238;8.092;2022-10-22T02:44:34;99083.00;;;14.78;85.30
68859;BME280;55864;49.238;8.092;2022-10-22T02:46:35;99082.91;;;14.41;85.98
68859;BME280;55864;49.238;8.092;2022-10-22T02:48:36;99082.81;;;14.34;86.96
68859;BME280;55864;49.238;8.092;2022-10-22T02:50:38;99082.38;;;14.23;88.85
68859;BME280;55864;49.238;8.092;2022-10-22T02:52:39;99084.69;;;14.17;89.27
68859;BME280;55864;49.238;8.092;2022-10-22T02:54:39;99090.91;;;14.02;89.37
68859;BME280;55864;49.238;8.092;2022-10-22T02:56:40;99081.16;;;14.33;88.83
68859;BME280;55864;49.238;8.092;2022-10-22T02:58:40;99079.84;;;14.29;89.17
68859;BME280;55864;49.238;8.092;2022-10-22T03:00:41;99102.06;;;14.12;90.90
68859;BME280;55864;49.238;8.092;2022-10-22T03:02:41;99126.84;;;14.11;91.01
68859;BME280;55864;49.238;8.092;2022-10-22T03:04:42;99136.06;;;14.15;91.77
68859;BME280;55864;49.238;8.092;2022-10-22T03:06:44;99133.72;;;14.20;91.42
68859;BME280;55864;49.238;8.092;2022-10-22T03:08:44;99122.69;;;14.16;91.86
68859;BME280;55864;49.238;8.092;2022-10-22T03:10:45;99106.47;;;14.19;91.74
68859;BME280;55864;49.238;8.092;2022-10-22T03:12:45;99104.28;;;14.31;91.39
68859;BME280;55864;49.238;8.092;2022-10-22T03:14:46;99113.88;;;14.24;90.90
68859;BME280;55864;49.238;8.092;2022-10-22T03:16:46;99114.06;;;14.23;90.66
68859;BME280;55864;49.238;8.092;2022-10-22T03:18:47;99118.16;;;14.25;89.85
68859;BME280;55864;49.238;8.092;2022-10-22T03:20:47;99117.69;;;14.22;89.78
68859;BME280;55864;49.238;8.092;2022-10-22T03:22:49;99125.59;;;14.30;88.16
68859;BME280;55864;49.238;8.092;2022-10-22T03:24:53;99136.72;;;14.17;89.25
68859;BME280;55864;49.238;8.092;2022-10-22T03:26:55;99130.34;;;14.03;88.50
68859;BME280;55864;49.238;8.092;2022-10-22T03:28:57;99123.03;;;14.13;90.09
68859;BME280;55864;49.238;8.092;2022-10-22T03:30:57;99141.00;;;14.18;89.54
68859;BME280;55864;49.238;8.092;2022-10-22T03:32:58;99144.09;;;14.22;89.20
68859;BME280;55864;49.238;8.092;2022-10-22T03:34:58;99143.50;;;14.11;88.83
68859;BME280;55864;49.238;8.092;2022-10-22T03:36:59;99137.09;;;14.06;89.75
68859;BME280;55864;49.238;8.092;2022-10-22T03:39:03;99145.25;;;13.88;89.75
68859;BME280;55864;49.238;8.092;2022-10-22T03:41:04;99144.91;;;13.91;89.86
68859;BME280;55864;49.238;8.092;2022-10-22T03:43:05;99149.88;;;13.86;90.14
68859;BME280;55864;49.238;8.092;2022-10-22T03:45:06;99157.81;;;13.86;90.70
68859;BME280;55864;49.238;8.092;2022-10-22T03:47:07;99161.47;;;13.77;91.73
68859;BME280;55864;49.238;8.092;2022-10-22T03:49:08;99170.72;;;13.73;91.49
68859;BME280;55864;49.238;8.092;2022-10-22T03:51:08;99166.75;;;13.69;91.85
68859;BME280;55864;49.238;8.092;2022-10-22T03:53:09;99176.50;;;13.61;91.64
68859;BME280;55864;49.238;8.092;2022-10-22T03:55:11;99182.44;;;13.71;91.85
68859;BME280;55864;49.238;8.092;2022-10-22T03:57:12;99191.34;;;13.62;91.53
68859;BME280;55864;49.238;8.092;2022-10-22T03:59:12;99193.47;;;13.82;90.63
68859;BME280;55864;49.238;8.092;2022-10-22T04:01:13;99201.09;;;13.61;91.56
68859;BME280;55864;49.238;8.092;2022-10-22T04:03:13;99198.44;;;13.69;91.20
68859;BME280;55864;49.238;8.092;2022-10-22T04:05:14;99194.84;;;13.62;91.49
68859;BME280;55864;49.238;8.092;2022-10-22T04:07:14;99206.03;;;13.64;91.24
68859;BME280;55864;49.238;8.092;2022-10-22T04:09:15;99203.72;;;13.61;91.78
68859;BME280;55864;49.238;8.092;2022-10-22T04:11:17;99206.53;;;13.68;91.74
68859;BME280;55864;49.238;8.092;2022-10-22T04:13:17;99206.72;;;13.42;92.95
68859;BME280;55864;49.238;8.092;2022-10-22T04:15:18;99218.09;;;13.51;92.76
68859;BME280;55864;49.238;8.092;2022-10-22T04:17:18;99217.94;;;13.36;93.35
68859;BME280;55864;49.238;8.092;2022-10-22T04:19:19;99219.91;;;13.50;93.06
68859;BME280;55864;49.238;8.092;2022-10-22T04:21:19;99217.09;;;13.44;92.87
68859;BME280;55864;49.238;8.092;2022-10-22T04:23:20;99227.19;;;13.32;93.66
68859;BME280;55864;49.238;8.092;2022-10-22T04:25:21;99223.88;;;13.22;94.82
68859;BME280;55864;49.238;8.092;2022-10-22T04:27:23;99237.06;;;13.22;94.34
68859;BME280;55864;49.238;8.092;2022-10-22T04:29:23;99229.31;;;13.20;95.19
68859;BME280;55864;49.238;8.092;2022-10-22T04:31:25;99224.06;;;13.20;94.40
68859;BME280;55864;49.238;8.092;2022-10-22T04:33:26;99223.88;;;13.14;95.04
68859;BME280;55864;49.238;8.092;2022-10-22T04:35:26;99218.91;;;13.03;95.14
68859;BME280;55864;49.238;8.092;2022-10-22T04:37:27;99218.13;;;13.18;95.23
68859;BME280;55864;49.238;8.092;2022-10-22T04:39:28;99219.09;;;13.34;93.66
68859;BME280;55864;49.238;8.092;2022-10-22T04:41:31;99222.53;;;13.42;93.13
68859;BME280;55864;49.238;8.092;2022-10-22T04:43:33;99220.91;;;13.49;92.44
68859;BME280;55864;49.238;8.092;2022-10-22T04:45:33;99221.41;;;13.53;92.54
68859;BME280;55864;49.238;8.092;2022-10-22T04:47:34;99219.25;;;13.40;92.85
68859;BME280;55864;49.238;8.092;2022-10-22T04:49:34;99216.13;;;13.45;92.72
68859;BME280;55864;49.238;8.092;2022-10-22T04:51:35;99219.06;;;13.58;91.50
68859;BME280;55864;49.238;8.092;2022-10-22T04:53:36;99219.06;;;13.66;90.73
68859;BME280;55864;49.238;8.092;2022-10-22T04:55:36;99220.88;;;13.73;89.58
68859;BME280;55864;49.238;8.092;2022-10-22T04:57:37;99228.13;;;13.71;91.06
68859;BME280;55864;49.238;8.092;2022-10-22T04:59:39;99224.84;;;13.61;91.10
68859;BME280;55864;49.238;8.092;2022-10-22T05:01:40;99220.09;;;13.57;91.17
68859;BME280;55864;49.238;8.092;2022-10-22T05:03:42;99221.53;;;13.59;91.14
68859;BME280;55864;49.238;8.092;2022-10-22T05:05:42;99227.66;;;13.68;90.72
68859;BME280;55864;49.238;8.092;2022-10-22T05:07:43;99235.22;;;13.71;90.08
68859;BME280;55864;49.238;8.092;2022-10-22T05:09:43;99232.41;;;13.72;89.79
68859;BME280;55864;49.238;8.092;2022-10-22T05:11:46;99230.41;;;13.82;89.77
68859;BME280;55864;49.238;8.092;2022-10-22T05:13:47;99229.09;;;13.94;89.28
68859;BME280;55864;49.238;8.092;2022-10-22T05:15:49;99233.94;;;14.22;88.13
68859;BME280;55864;49.238;8.092;2022-10-22T05:17:50;99231.28;;;14.30;85.67
68859;BME280;55864;49.238;8.092;2022-10-22T05:19:50;99229.81;;;14.27;86.36
68859;BME280;55864;49.238;8.092;2022-10-22T05:21:52;99239.59;;;14.10;86.58
68859;BME280;55864;49.238;8.092;2022-10-22T05:23:53;99238.75;;;14.10;86.42
68859;BME280;55864;49.238;8.092;2022-10-22T05:25:54;99241.94;;;14.05;86.64
68859;BME280;55864;49.238;8.092;2022-10-22T05:27:54;99252.03;;;13.94;87.72
68859;BME280;55864;49.238;8.092;2022-10-22T05:29:55;99254.53;;;13.71;88.95
68859;BME280;55864;49.238;8.092;2022-10-22T05:31:57;99259.81;;;13.55;89.86
68859;BME280;55864;49.238;8.092;2022-10-22T05:33:57;99261.97;;;13.52;90.84
68859;BME280;55864;49.238;8.092;2022-10-22T05:35:58;99262.13;;;13.42;90.55
68859;BME280;55864;49.238;8.092;2022-10-22T05:37:59;99255.53;;;13.22;91.26
68859;BME280;55864;49.238;8.092;2022-10-22T05:39:59;99256.69;;;13.36;91.37
68859;BME280;55864;49.238;8.092;2022-10-22T05:42:00;99257.53;;;13.28;90.58
68859;BME280;55864;49.238;8.092;2022-10-22T05:44:01;99261.13;;;13.27;90.96
68859;BME280;55864;49.238;8.092;2022-10-22T05:46:03;99262.63;;;13.21;91.31
68859;BME280;55864;49.238;8.092;2022-10-22T05:48:06;99269.06;;;13.19;91.61
68859;BME280;55864;49.238;8.092;2022-10-22T05:50:07;99271.34;;;13.14;91.42
68859;BME280;55864;49.238;8.092;2022-10-22T05:52:08;99275.63;;;13.23;90.90
68859;BME280;55864;49.238;8.092;2022-10-22T05:54:15;99279.88;;;13.00;93.49
68859;BME280;55864;49.238;8.092;2022-10-22T05:56:16;99286.09;;;12.91;93.70
68859;BME280;55864;49.238;8.092;2022-10-22T05:58:17;99291.38;;;12.99;92.02
68859;BME280;55864;49.238;8.092;2022-10-22T06:00:17;99287.00;;;13.07;92.53
68859;BME280;55864;49.238;8.092;2022-10-22T06:02:18;99302.31;;;13.04;91.91
68859;BME280;55864;49.238;8.092;2022-10-22T06:04:20;99301.28;;;12.97;92.87
68859;BME280;55864;49.238;8.092;2022-10-22T06:06:23;99298.16;;;13.01;92.38
68859;BME280;55864;49.238;8.092;2022-10-22T06:08:25;99300.53;;;13.12;91.65
68859;BME280;55864;49.238;8.092;2022-10-22T06:10:26;99303.50;;;13.09;92.00
68859;BME280;55864;49.238;8.092;2022-10-22T06:12:26;99307.28;;;13.07;92.32
68859;BME280;55864;49.238;8.092;2022-10-22T06:14:27;99306.25;;;13.00;93.11
68859;BME280;55864;49.238;8.092;2022-10-22T06:16:28;99303.91;;;12.97;92.87
68859;BME280;55864;49.238;8.092;2022-10-22T06:18:29;99308.50;;;12.95;91.91
68859;BME280;55864;49.238;8.092;2022-10-22T06:20:32;99316.59;;;12.93;92.48
68859;BME280;55864;49.238;8.092;2022-10-22T06:22:33;99313.69;;;13.04;91.73
68859;BME280;55864;49.238;8.092;2022-10-22T06:24:33;99307.38;;;12.97;91.54
68859;BME280;55864;49.238;8.092;2022-10-22T06:26:34;99319.94;;;12.62;93.31
68859;BME280;55864;49.238;8.092;2022-10-22T06:28:35;99320.16;;;12.76;93.49
68859;BME280;55864;49.238;8.092;2022-10-22T06:30:36;99316.97;;;12.65;93.65
68859;BME280;55864;49.238;8.092;2022-10-22T06:32:37;99318.59;;;12.58;94.87
68859;BME280;55864;49.238;8.092;2022-10-22T06:34:38;99328.47;;;12.56;95.21
68859;BME280;55864;49.238;8.092;2022-10-22T06:36:40;99327.91;;;12.78;93.77
68859;BME280;55864;49.238;8.092;2022-10-22T06:38:41;99337.22;;;12.64;94.75
68859;BME280;55864;49.238;8.092;2022-10-22T06:40:42;99338.94;;;12.73;93.35
68859;BME280;55864;49.238;8.092;2022-10-22T06:42:42;99341.06;;;12.70;94.72
68859;BME280;55864;49.238;8.092;2022-10-22T06:44:43;99347.38;;;12.85;93.69
68859;BME280;55864;49.238;8.092;2022-10-22T06:46:43;99345.81;;;12.66;95.20
68859;BME280;55864;49.238;8.092;2022-10-22T06:48:48;99342.09;;;12.77;94.63
68859;BME280;55864;49.238;8.092;2022-10-22T06:50:48;99351.00;;;12.84;93.98
68859;BME280;55864;49.238;8.092;2022-10-22T06:52:50;99348.56;;;12.90;94.15
68859;BME280;55864;49.238;8.092;2022-10-22T06:54:51;99344.69;;;13.10;92.46
68859;BME280;55864;49.238;8.092;2022-10-22T06:56:51;99352.09;;;13.07;93.70
68859;BME280;55864;49.238;8.092;2022-10-22T06:58:53;99350.63;;;13.12;93.05
68859;BME280;55864;49.238;8.092;2022-10-22T07:01:00;99357.72;;;13.12;92.96
68859;BME280;55864;49.238;8.092;2022-10-22T07:03:01;99352.16;;;13.31;92.12
68859;BME280;55864;49.238;8.092;2022-10-22T07:05:01;99359.41;;;13.29;91.78
68859;BME280;55864;49.238;8.092;2022-10-22T07:07:02;99360.75;;;13.41;91.39
68859;BME280;55864;49.238;8.092;2022-10-22T07:09:05;99369.34;;;13.51;91.82
68859;BME280;55864;49.238;8.092;2022-10-22T07:11:06;99377.59;;;13.48;91.09
68859;BME280;55864;49.238;8.092;2022-10-22T07:13:07;99376.91;;;13.46;91.41
68859;BME280;55864;49.238;8.092;2022-10-22T07:15:08;99384.69;;;13.56;91.44
68859;BME280;55864;49.238;8.092;2022-10-22T07:17:09;99384.22;;;13.60;91.10
68859;BME280;55864;49.238;8.092;2022-10-22T07:19:10;99385.69;;;13.71;90.72
68859;BME280;55864;49.238;8.092;2022-10-22T07:21:12;99390.50;;;13.75;90.04
68859;BME280;55864;49.238;8.092;2022-10-22T07:23:13;99394.63;;;13.86;89.77
68859;BME280;55864;49.238;8.092;2022-10-22T07:25:15;99395.09;;;13.89;89.37
68859;BME280;55864;49.238;8.092;2022-10-22T07:27:15;99395.13;;;13.97;88.88
68859;BME280;55864;49.238;8.092;2022-10-22T07:29:16;99401.56;;;14.03;88.44
68859;BME280;55864;49.238;8.092;2022-10-22T07:31:17;99399.22;;;14.16;88.60
68859;BME280;55864;49.238;8.092;2022-10-22T07:33:18;99401.38;;;14.37;87.48
68859;BME280;55864;49.238;8.092;2022-10-22T07:35:18;99412.66;;;14.31;87.20
68859;BME280;55864;49.238;8.092;2022-10-22T07:37:19;99404.84;;;14.53;85.76
68859;BME280;55864;49.238;8.092;2022-10-22T07:39:19;99410.63;;;14.57;86.28
68859;BME280;55864;49.238;8.092;2022-10-22T07:41:21;99421.13;;;14.73;85.84
68859;BME280;55864;49.238;8.092;2022-10-22T07:43:22;99415.13;;;14.95;84.83
68859;BME280;55864;49.238;8.092;2022-10-22T07:45:23;99411.63;;;15.33;82.95
68859;BME280;55864;49.238;8.092;2022-10-22T07:47:23;99411.31;;;15.44;81.27
68859;BME280;55864;49.238;8.092;2022-10-22T07:49:24;99421.41;;;15.33;82.04
68859;BME280;55864;49.238;8.092;2022-10-22T07:51:24;99417.41;;;15.37;82.24
68859;BME280;55864;49.238;8.092;2022-10-22T07:53:25;99422.03;;;15.73;80.67
68859;BME280;55864;49.238;8.092;2022-10-22T07:55:26;99427.50;;;15.94;80.09
68859;BME280;55864;49.238;8.092;2022-10-22T07:57:27;99424.25;;;16.07;78.51
68859;BME280;55864;49.238;8.092;2022-10-22T07:59:28;99427.78;;;16.22;78.32
68859;BME280;55864;49.238;8.092;2022-10-22T08:01:29;99431.19;;;16.31;76.40
68859;BME280;55864;49.238;8.092;2022-10-22T08:03:29;99426.88;;;16.30;75.99
68859;BME280;55864;49.238;8.092;2022-10-22T08:05:30;99428.78;;;16.21;77.43
68859;BME280;55864;49.238;8.092;2022-10-22T08:07:31;99431.53;;;16.28;76.75
68859;BME280;55864;49.238;8.092;2022-10-22T08:09:31;99433.25;;;16.21;76.78
68859;BME280;55864;49.238;8.092;2022-10-22T08:11:32;99442.41;;;15.95;77.66
68859;BME280;55864;49.238;8.092;2022-10-22T08:13:34;99438.84;;;16.03;77.58
68859;BME280;55864;49.238;8.092;2022-10-22T08:15:35;99447.88;;;16.17;77.04
68859;BME280;55864;49.238;8.092;2022-10-22T08:17:35;99450.19;;;16.20;77.10
68859;BME280;55864;49.238;8.092;2022-10-22T08:19:36;99453.22;;;16.31;76.86
68859;BME280;55864;49.238;8.092;2022-10-22T08:21:36;99461.56;;;16.43;77.20
68859;BME280;55864;49.238;8.092;2022-10-22T08:23:37;99455.09;;;16.45;76.84
68859;BME280;55864;49.238;8.092;2022-10-22T08:25:38;99457.88;;;16.52;76.74
68859;BME280;55864;49.238;8.092;2022-10-22T08:27:39;99462.44;;;16.58;76.32
68859;BME280;55864;49.238;8.092;2022-10-22T08:29:40;99456.25;;;16.65;76.13
68859;BME280;55864;49.238;8.092;2022-10-22T08:31:41;99459.28;;;16.77;75.56
68859;BME280;55864;49.238;8.092;2022-10-22T08:33:41;99457.84;;;16.89;75.58
68859;BME280;55864;49.238;8.092;2022-10-22T08:35:46;99459.66;;;16.88;74.99
68859;BME280;55864;49.238;8.092;2022-10-22T08:37:47;99466.63;;;17.04;75.41
68859;BME280;55864;49.238;8.092;2022-10-22T08:39:47;99464.53;;;17.14;73.66
68859;BME280;55864;49.238;8.092;2022-10-22T08:41:56;99464.88;;;17.26;73.33
68859;BME280;55864;49.238;8.092;2022-10-22T08:44:28;99474.28;;;17.28;73.68
68859;BME280;55864;49.238;8.092;2022-10-22T08:46:50;99478.97;;;17.41;73.33
68859;BME280;55864;49.238;8.092;2022-10-22T08:48:57;99477.41;;;17.46;73.46
68859;BME280;55864;49.238;8.092;2022-10-22T08:50:59;99479.34;;;17.52;72.28
68859;BME280;55864;49.238;8.092;2022-10-22T08:53:02;99486.41;;;17.60;72.01
68859;BME280;55864;49.238;8.092;2022-10-22T08:55:12;99473.59;;;18.06;71.45
68859;BME280;55864;49.238;8.092;2022-10-22T08:57:22;99474.19;;;17.86;71.66
68859;BME280;55864;49.238;8.092;2022-10-22T08:59:26;99485.81;;;18.00;70.90
68859;BME280;55864;49.238;8.092;2022-10-22T09:01:35;99478.66;;;18.22;71.26
68859;BME280;55864;49.238;8.092;2022-10-22T09:03:45;99474.75;;;18.18;70.84
68859;BME280;55864;49.238;8.092;2022-10-22T09:05:55;99481.56;;;18.27;70.53
68859;BME280;55864;49.238;8.092;2022-10-22T09:08:00;99483.06;;;18.50;70.01
68859;BME280;55864;49.238;8.092;2022-10-22T09:10:02;99481.41;;;18.49;70.53
68859;BME280;55864;49.238;8.092;2022-10-22T09:12:04;99479.50;;;18.43;70.47
68859;BME280;55864;49.238;8.092;2022-10-22T09:14:05;99476.38;;;18.40;70.38
68859;BME280;55864;49.238;8.092;2022-10-22T09:16:14;99476.56;;;18.38;69.98
68859;BME280;55864;49.238;8.092;2022-10-22T09:18:27;99485.00;;;18.21;70.67
68859;BME280;55864;49.238;8.092;2022-10-22T09:20:38;99479.94;;;18.26;71.57
68859;BME280;55864;49.238;8.092;2022-10-22T09:22:49;99488.91;;;18.25;71.13
68859;BME280;55864;49.238;8.092;2022-10-22T09:24:57;99471.44;;;18.37;70.27
68859;BME280;55864;49.238;8.092;2022-10-22T09:26:59;99471.88;;;18.40;70.68
68859;BME280;55864;49.238;8.092;2022-10-22T09:29:00;99485.19;;;18.40;70.25
68859;BME280;55864;49.238;8.092;2022-10-22T09:31:01;99483.25;;;18.49;70.84
68859;BME280;55864;49.238;8.092;2022-10-22T09:33:10;99485.56;;;18.37;69.81
68859;BME280;55864;49.238;8.092;2022-10-22T09:35:13;99488.41;;;18.57;69.62
68859;BME280;55864;49.238;8.092;2022-10-22T09:37:17;99492.88;;;18.77;68.87
68859;BME280;55864;49.238;8.092;2022-10-22T09:39:24;99491.00;;;18.71;69.38
68859;BME280;55864;49.238;8.092;2022-10-22T09:41:27;99494.16;;;18.60;69.46
68859;BME280;55864;49.238;8.092;2022-10-22T09:43:28;99494.66;;;18.70;68.93
68859;BME280;55864;49.238;8.092;2022-10-22T09:45:31;99494.25;;;18.67;68.61
68859;BME280;55864;49.238;8.092;2022-10-22T09:47:33;99499.22;;;18.76;68.88
68859;BME280;55864;49.238;8.092;2022-10-22T09:49:35;99498.38;;;18.69;68.69
68859;BME280;55864;49.238;8.092;2022-10-22T09:51:40;99506.66;;;18.81;68.37
68859;BME280;55864;49.238;8.092;2022-10-22T09:53:44;99499.66;;;18.80;68.55
68859;BME280;55864;49.238;8.092;2022-10-22T09:55:50;99507.78;;;18.72;68.40
68859;BME280;55864;49.238;8.092;2022-10-22T09:57:52;99505.38;;;18.77;68.58
68859;BME280;55864;49.238;8.092;2022-10-22T09:59:53;99512.78;;;18.82;68.72
68859;BME280;55864;49.238;8.092;2022-10-22T10:02:00;99509.53;;;18.86;68.26
68859;BME280;55864;49.238;8.092;2022-10-22T10:04:03;99517.31;;;18.88;68.66
68859;BME280;55864;49.238;8.092;2022-10-22T10:06:04;99520.72;;;19.03;68.29
68859;BME280;55864;49.238;8.092;2022-10-22T10:08:11;99523.25;;;19.17;67.15
68859;BME280;55864;49.238;8.092;2022-10-22T10:10:20;99522.25;;;19.18;68.45
68859;BME280;55864;49.238;8.092;2022-10-22T10:12:29;99515.66;;;19.14;67.14
68859;BME280;55864;49.238;8.092;2022-10-22T10:14:37;99515.47;;;19.16;67.28
68859;BME280;55864;49.238;8.092;2022-10-22T10:16:50;99515.09;;;19.19;67.87
68859;BME280;55864;49.238;8.092;2022-10-22T10:19:05;99517.16;;;19.23;68.18
68859;BME280;55864;49.238;8.092;2022-10-22T10:21:12;99530.19;;;19.39;67.98
68859;BME280;55864;49.238;8.092;2022-10-22T10:23:20;99526.66;;;19.32;67.66
68859;BME280;55864;49.238;8.092;2022-10-22T10:25:34;99526.94;;;19.44;67.89
68859;BME280;55864;49.238;8.092;2022-10-22T10:27:40;99532.47;;;19.42;67.76
68859;BME280;55864;49.238;8.092;2022-10-22T10:29:48;99534.56;;;19.53;66.95
68859;BME280;55864;49.238;8.092;2022-10-22T10:32:02;99516.94;;;19.52;67.03
68859;BME280;55864;49.238;8.092;2022-10-22T10:34:13;99516.97;;;19.59;67.25
68859;BME280;55864;49.238;8.092;2022-10-22T10:36:24;99525.25;;;19.36;67.87
68859;BME280;55864;49.238;8.092;2022-10-22T10:38:54;99517.47;;;19.35;67.40
68859;BME280;55864;49.238;8.092;2022-10-22T10:41:04;99521.44;;;19.45;66.90
68859;BME280;55864;49.238;8.092;2022-10-22T10:43:10;99521.03;;;19.48;66.76
68859;BME280;55864;49.238;8.092;2022-10-22T10:45:16;99526.31;;;19.42;66.47
68859;BME280;55864;49.238;8.092;2022-10-22T10:47:32;99522.22;;;19.46;65.92
68859;BME280;55864;49.238;8.092;2022-10-22T10:49:38;99521.50;;;19.58;65.32
68859;BME280;55864;49.238;8.092;2022-10-22T10:51:46;99527.25;;;19.62;65.03
68859;BME280;55864;49.238;8.092;2022-10-22T10:54:02;99521.03;;;19.55;64.24